タヒチ・ファアア国際空港の過去48時間の天気

タヒチ・ファアア国際空港 (Tahiti-Faaa)

現在時刻: 5/25 16:15 -10 (5/26 02:15 UTC) 以下の時間は現地時間です。

過去48時間のMETAR気象情報
時間 風向 風速(m/s) 視程 気温(℃) 湿度(%) 気圧(hPa) 天気現象
25 16:00 南西 5 10km以上 28 62 1012
25 15:30 南西 4 10km以上 29 62 1012
25 15:00 西南西 2 10km以上 30 55 1011
25 14:30 西 3 10km以上 29 62 1011
25 14:00 北西 2 10km以上 29 66 1012
25 13:30 北西 3 10km以上 28 66 1012
25 13:00 西北西 2 10km以上 29 62 1013
25 12:30 北西 2 10km以上 29 62 1013
25 12:00 西南西 3 10km以上 29 66 1013
25 11:30 南西 3 10km以上 29 62 1014
25 11:00 南西 4 10km以上 28 66 1014
25 10:30 南西 4 10km以上 28 70 1014
25 10:00 南西 4 10km以上 28 66 1015
25 09:30 南西 3 10km以上 27 70 1014
25 09:00 西南西 2 10km以上 27 70 1014
25 08:30 南西 2 10km以上 27 70 1014
25 08:00 不定 1 10km以上 26 74 1013
25 07:34 不定 1 10km以上 25 78 1013
25 07:00 不定 1 10km以上 23 78 1013
25 06:30 不定 1 10km以上 22 83 1013
25 06:00 東南東 2 10km以上 23 78 1013
25 05:30 2 10km以上 23 83 1012
25 05:00 2 10km以上 23 83 1012
25 04:30 東南東 2 10km以上 23 83 1012
25 04:00 2 10km以上 24 78 1012
25 03:30 3 10km以上 24 78 1012
25 03:00 南南東 3 10km以上 24 78 1012
25 02:30 東南東 1 10km以上 24 78 1013
25 02:00 不定 2 10km以上 24 78 1013
25 01:30 不定 1 10km以上 25 74 1013
25 01:00 不定 2 10km以上 25 78 1013
25 00:30 不定 1 10km以上 25 78 1014
25 00:00 2 10km以上 24 83 1014
24 23:30 東南東 2 10km以上 24 78 1014
24 23:00 2 10km以上 24 78 1014
24 22:30 不定 1 10km以上 24 78 1014
24 22:00 2 10km以上 24 78 1015
24 21:30 南南西 1 10km以上 25 74 1015
24 21:00 2 10km以上 25 74 1015
24 20:30 2 10km以上 25 74 1015
24 20:04 不定 1 10km以上 26 70 1015
24 19:36 東南東 2 10km以上 26 74 1015
24 19:00 1 10km以上 26 74 1015
24 18:30 不定 2 10km以上 27 70 1014
24 18:00 不定 2 10km以上 27 66 1014
24 17:30 北北西 2 10km以上 28 62 1014
24 17:00 2 10km以上 28 62 1014
24 16:40 北北西 3 10km以上 29 62 1013
24 16:00 北北西 3 10km以上 30 55 1013
24 15:30 北西 2 10km以上 30 55 1013
24 15:00 西 2 10km以上 30 59 1013
24 14:30 西南西 4 10km以上 29 62 1013
24 14:10 西南西 4 10km以上 29 62 1014
24 14:00 西南西 4 10km以上 29 58 1014
24 13:18 西南西 4 10km以上 30 55 1014
24 12:30 西 2 10km以上 30 55 1015
24 12:00 西北西 3 10km以上 30 59 1015
24 11:30 北西 2 10km以上 29 62 1015
24 11:00 不定 2 10km以上 29 62 1016
24 10:30 不定 2 10km以上 29 62 1016
24 09:30 西 2 10km以上 28 70 1017
24 09:20 西 2 10km以上 28 70 1017
24 08:30 不定 1 10km以上 27 70 1017
24 08:00 静穏 0 10km以上 27 74 1017
24 07:30 東南東 2 10km以上 25 78 1017
24 07:08 南南東 2 10km以上 24 83 1016
24 06:30 東南東 2 10km以上 23 83 1016
24 06:00 東南東 1 10km以上 23 83 1016
24 05:30 不定 2 10km以上 23 83 1016
24 05:00 東南東 2 10km以上 23 83 1015
24 04:30 東南東 2 10km以上 23 83 1015
24 04:00 東南東 1 10km以上 24 78 1015
24 03:30 東南東 2 10km以上 24 83 1015
24 03:00 2 10km以上 24 78 1015
24 02:30 3 10km以上 24 78 1016
24 02:00 南南東 2 10km以上 24 78 1016
24 01:30 南南東 1 10km以上 24 74 1016
24 01:00 東南東 2 10km以上 24 78 1016
24 00:30 東南東 2 10km以上 24 78 1016
24 00:00 3 10km以上 24 83 1016
23 23:30 東北東 2 10km以上 24 78 1017
23 23:00 2 10km以上 25 74 1017
23 22:30 南南東 2 10km以上 26 70 1017
23 22:00 南南東 2 10km以上 26 70 1017
23 21:30 2 10km以上 25 74 1017
23 21:00 不定 1 10km以上 26 70 1017
23 20:30 東南東 2 10km以上 26 70 1017
23 20:00 2 10km以上 26 74 1017
23 19:30 南南東 3 10km以上 27 70 1017
23 19:00 3 10km以上 27 70 1017
23 18:30 2 10km以上 27 70 1016
23 18:00 2 10km以上 28 66 1016
23 17:30 南南西 3 10km以上 28 66 1016
23 17:00 南南西 3 10km以上 29 62 1015
23 16:30 南南西 3 10km以上 29 58 1015
NTAA 260200Z 23010KT 9999 FEW023 SCT066 28/20 Q1012 NOSIG
NTAA 260130Z 23008KT 9999 FEW023 29/21 Q1012 NOSIG
NTAA 260100Z 25003KT 210V300 9999 FEW023 30/20 Q1011 NOSIG
NTAA 260030Z 26005KT 9999 FEW023 29/21 Q1011 NOSIG
NTAA 260000Z 31004KT 9999 FEW023 SCT066 29/22 Q1012 NOSIG
NTAA 252330Z 32005KT 280V350 9999 FEW023 BKN050 28/21 Q1012 NOSIG
NTAA 252300Z 30004KT 280V340 9999 FEW023 BKN050 29/21 Q1013 NOSIG
NTAA 252230Z 32003KT 290V350 9999 FEW026 29/21 Q1013 NOSIG
NTAA 252200Z 25006KT 9999 FEW026 29/22 Q1013 NOSIG
NTAA 252130Z 23006KT 9999 FEW026 29/21 Q1014 NOSIG
NTAA 252100Z 22008KT 9999 FEW026 28/21 Q1014 NOSIG
NTAA 252030Z 22008KT 9999 FEW026 28/22 Q1014 NOSIG
NTAA 252000Z 22007KT 9999 FEW026 28/21 Q1015 NOSIG
NTAA 251930Z 23005KT 9999 FEW026 27/21 Q1014 NOSIG
NTAA 251900Z 24003KT 210V280 9999 FEW026 27/21 Q1014 NOSIG
NTAA 251830Z 22003KT 190V260 9999 FEW026 27/21 Q1014 NOSIG
NTAA 251800Z VRB02KT 9999 FEW026 26/21 Q1013 NOSIG
NTAA 251734Z VRB01KT 9999 FEW023 25/21 Q1013 NOSIG
NTAA 251700Z VRB02KT 9999 FEW023 23/19 Q1013 NOSIG
NTAA 251630Z VRB01KT 9999 FEW023 22/19 Q1013 NOSIG
NTAA 251600Z 11004KT 9999 FEW023 23/19 Q1013 NOSIG
NTAA 251530Z 09004KT 9999 FEW023 23/20 Q1012 NOSIG
NTAA 251500Z 10004KT 9999 FEW023 23/20 Q1012 NOSIG
NTAA 251430Z 11004KT 9999 FEW023 23/20 Q1012 NOSIG
NTAA 251400Z 09003KT 050V160 9999 FEW023 24/20 Q1012 NOSIG
NTAA 251330Z 17005KT 9999 FEW023 24/20 Q1012 NOSIG
NTAA 251300Z 16005KT 9999 FEW023 24/20 Q1012 NOSIG
NTAA 251230Z 12002KT 9999 FEW023 24/20 Q1013 NOSIG
NTAA 251200Z VRB03KT 9999 FEW023 24/20 Q1013 NOSIG
NTAA 251130Z VRB02KT 9999 FEW023 SCT080 25/20 Q1013 NOSIG
NTAA 251100Z AUTO VRB03KT 9999 BKN082 25/21 Q1013 NOSIG
NTAA 251030Z AUTO VRB02KT 9999 SCT078 OVC088 25/21 Q1014 NOSIG
NTAA 251000Z AUTO 08004KT 9999 BKN088 24/21 Q1014 NOSIG
NTAA 250930Z AUTO 12003KT CAVOK 24/20 Q1014 NOSIG
NTAA 250900Z AUTO 09004KT CAVOK 24/20 Q1014 NOSIG
NTAA 250830Z AUTO VRB02KT CAVOK 24/20 Q1014 NOSIG
NTAA 250800Z 17003KT 9999 FEW023 24/20 Q1015 NOSIG
NTAA 250730Z 21001KT 9999 FEW023 25/20 Q1015 NOSIG
NTAA 250700Z 19003KT 9999 FEW023 25/20 Q1015 NOSIG
NTAA 250630Z 17003KT 9999 FEW023 25/20 Q1015 NOSIG
NTAA 250604Z VRB02KT 9999 FEW023 26/20 Q1015 NOSIG
NTAA 250536Z 11003KT 9999 FEW023 26/21 Q1015 NOSIG
NTAA 250500Z 10002KT 9999 FEW023 26/21 Q1015 NOSIG
NTAA 250430Z VRB03KT 9999 FEW023 27/21 Q1014 NOSIG
NTAA 250400Z VRB03KT 9999 FEW023 27/20 Q1014 NOSIG
NTAA 250330Z 34003KT 310V010 9999 FEW023 28/20 Q1014 NOSIG
NTAA 250300Z 36004KT 9999 FEW023 28/20 Q1014 NOSIG
NTAA 250240Z 34005KT 290V020 9999 FEW023 29/21 Q1013 NOSIG
NTAA 250200Z 34006KT 300V360 9999 FEW025 30/20 Q1013 NOSIG
NTAA 250130Z 32004KT 9999 FEW025 30/20 Q1013 NOSIG
NTAA 250100Z 28004KT 250V310 9999 FEW025 30/21 Q1013 NOSIG
NTAA 250030Z 25008KT 9999 FEW025 29/21 Q1013 NOSIG
NTAA 250010Z 25007KT 9999 FEW025 29/21 Q1014 NOSIG
NTAA 250000Z 25008KT 9999 FEW025 29/20 Q1014 NOSIG
NTAA 242318Z 25007KT 9999 FEW025 30/20 Q1014 NOSIG
NTAA 242230Z 27004KT 9999 FEW025 30/20 Q1015 NOSIG
NTAA 242200Z 29005KT 9999 FEW025 30/21 Q1015 NOSIG
NTAA 242130Z 31003KT 9999 FEW025 29/21 Q1015 NOSIG
NTAA 242100Z VRB03KT 9999 FEW025 29/21 Q1016 NOSIG
NTAA 242030Z VRB03KT 9999 FEW025 29/21 Q1016 NOSIG
NTAA 241930Z 26003KT 9999 FEW025 28/22 Q1017 NOSIG
NTAA 241920Z 26003KT 9999 FEW025 28/22 Q1017 NOSIG
NTAA 241830Z VRB02KT 9999 FEW025 27/21 Q1017 NOSIG
NTAA 241800Z 00000KT 9999 FEW025 27/22 Q1017 NOSIG
NTAA 241730Z 12004KT 090V170 9999 FEW025 25/21 Q1017 NOSIG
NTAA 241708Z 15003KT 9999 FEW025 24/21 Q1016 NOSIG
NTAA 241630Z 12003KT 9999 FEW025 23/20 Q1016 NOSIG
NTAA 241600Z 12001KT 9999 FEW025 23/20 Q1016 NOSIG
NTAA 241530Z VRB03KT 9999 FEW025 23/20 Q1016 NOSIG
NTAA 241500Z 12004KT 9999 FEW025 23/20 Q1015 NOSIG
NTAA 241430Z 12003KT 9999 FEW025 23/20 Q1015 NOSIG
NTAA 241400Z 12002KT 9999 FEW025 24/20 Q1015 NOSIG
NTAA 241330Z 12003KT 9999 FEW025 24/21 Q1015 NOSIG
NTAA 241300Z 17004KT 9999 FEW025 24/20 Q1015 NOSIG
NTAA 241230Z 17005KT 9999 FEW025 24/20 Q1016 NOSIG
NTAA 241200Z 16004KT 9999 FEW025 24/20 Q1016 NOSIG
NTAA 241130Z 15002KT 9999 FEW025 24/19 Q1016 NOSIG
NTAA 241100Z 12004KT 9999 FEW025 24/20 Q1016 NOSIG
NTAA 241030Z AUTO 11004KT CAVOK 24/20 Q1016 NOSIG
NTAA 241000Z AUTO 09005KT CAVOK 24/21 Q1016 NOSIG
NTAA 240930Z AUTO 06003KT CAVOK 24/20 Q1017 NOSIG
NTAA 240900Z AUTO 08003KT CAVOK 25/20 Q1017 NOSIG
NTAA 240830Z AUTO 15003KT CAVOK 26/20 Q1017 NOSIG
NTAA 240800Z 16004KT 9999 FEW025 26/20 Q1017 NOSIG
NTAA 240730Z 17004KT 9999 FEW025 25/20 Q1017 NOSIG
NTAA 240700Z VRB02KT 9999 FEW025 26/20 Q1017 NOSIG
NTAA 240630Z 12003KT 080V140 9999 FEW025 26/20 Q1017 WS ALL RWY NOSIG
NTAA 240600Z 10004KT 070V130 9999 FEW025 26/21 Q1017 WS ALL RWY NOSIG
NTAA 240530Z 16006KT 9999 FEW025 27/21 Q1017 WS ALL RWY NOSIG
NTAA 240500Z 17006KT 9999 FEW025 27/21 Q1017 WS ALL RWY NOSIG
NTAA 240430Z 17004KT 9999 FEW025 27/21 Q1016 WS ALL RWY NOSIG
NTAA 240400Z 19004KT 120V220 9999 FEW025 28/21 Q1016 WS ALL RWY NOSIG
NTAA 240330Z 20006KT 9999 FEW025 28/21 Q1016 WS ALL RWY NOSIG
NTAA 240300Z 21006KT 9999 FEW025 29/21 Q1015 WS ALL RWY NOSIG
NTAA 240230Z 21005KT 180V240 9999 FEW025 29/20 Q1015 WS ALL RWY NOSIG